Time;durP1;ratioP1;P1;durP2;ratioP2;P2;SDS_P1;SDS_P2;PMS_P1;PMS_P2;Temp;Humidity;BMP_temperature;BMP_pressure;BME280_temperature;BME280_humidity;BME280_pressure;Samples;Min_cycle;Max_cycle;Signal;HPM_P1;HPM_P2
2021/12/06 00:01:33;;;;;;;16.77;7.13;;;;;;;4.19;100.00;94015.00;5070652;28;20071;-71
2021/12/06 00:04:06;;;;;;;17.25;7.97;;;;;;;3.95;100.00;93991.59;5069191;28;20127;-71
2021/12/06 00:06:37;;;;;;;16.08;6.90;;;;;;;4.12;100.00;94025.34;5072861;28;20040;-71
2021/12/06 00:09:10;;;;;;;14.77;6.85;;;;;;;4.00;100.00;94021.91;5065532;28;20040;-71
2021/12/06 00:11:39;;;;;;;21.67;7.60;;;;;;;3.96;100.00;94026.69;5064329;28;20078;-70
2021/12/06 00:14:06;;;;;;;15.73;6.03;;;;;;;3.91;100.00;94021.38;5063322;28;20044;-70
2021/12/06 00:16:33;;;;;;;12.18;5.50;;;;;;;3.83;100.00;94008.72;5062454;28;20028;-71
2021/12/06 00:19:00;;;;;;;14.68;6.78;;;;;;;3.98;100.00;94037.56;5067258;28;20441;-71
2021/12/06 00:21:28;;;;;;;11.90;6.68;;;;;;;4.00;100.00;94032.22;5070375;28;20044;-72
2021/12/06 00:23:55;;;;;;;16.63;6.03;;;;;;;4.05;100.00;94013.53;5070097;28;20041;-71
2021/12/06 00:26:22;;;;;;;11.85;6.38;;;;;;;4.09;100.00;94019.81;5067521;28;20041;-71
2021/12/06 00:28:56;;;;;;;12.10;5.75;;;;;;;4.10;100.00;94021.41;5073268;28;20075;-72
2021/12/06 00:31:28;;;;;;;24.45;7.63;;;;;;;4.00;100.00;94024.47;5070045;28;20040;-72
2021/12/06 00:33:59;;;;;;;17.40;7.45;;;;;;;3.87;100.00;94022.78;5067006;28;20044;-72
2021/12/06 00:36:28;;;;;;;11.88;5.60;;;;;;;3.85;100.00;94024.75;5067951;28;20152;-71
2021/12/06 00:38:58;;;;;;;13.68;6.45;;;;;;;3.90;100.00;94034.44;5068307;28;20428;-72
2021/12/06 00:41:25;;;;;;;11.93;5.90;;;;;;;3.88;100.00;94044.97;5066356;28;20040;-72
2021/12/06 00:43:53;;;;;;;15.48;6.85;;;;;;;3.96;100.00;94047.28;5072475;28;20524;-71
2021/12/06 00:46:21;;;;;;;18.90;7.95;;;;;;;3.95;100.00;94025.09;5066298;28;20387;-72
2021/12/06 00:48:48;;;;;;;16.85;6.75;;;;;;;3.95;100.00;94004.47;5069800;28;20094;-72
2021/12/06 00:51:15;;;;;;;13.05;6.05;;;;;;;3.99;100.00;94020.31;5066539;28;20464;-72
2021/12/06 00:53:43;;;;;;;11.90;5.93;;;;;;;4.08;100.00;94049.19;5064863;28;20052;-71
2021/12/06 00:56:11;;;;;;;12.20;6.05;;;;;;;4.06;100.00;94048.63;5069993;28;20068;-71
2021/12/06 00:58:40;;;;;;;16.75;7.25;;;;;;;3.97;100.00;94038.56;5067807;28;21994;-71
2021/12/06 01:01:08;;;;;;;11.63;6.35;;;;;;;4.08;100.00;94049.19;5069768;28;20544;-71
2021/12/06 01:03:38;;;;;;;16.42;7.10;;;;;;;4.07;100.00;94037.28;5067323;28;20049;-72
2021/12/06 01:06:08;;;;;;;17.92;6.80;;;;;;;4.17;100.00;94037.63;5074462;28;20060;-71
2021/12/06 01:08:36;;;;;;;15.27;6.60;;;;;;;4.17;100.00;94028.09;5068155;28;20505;-71
2021/12/06 01:11:04;;;;;;;13.60;5.82;;;;;;;4.18;100.00;94021.94;5065643;28;20399;-72
2021/12/06 01:13:31;;;;;;;10.95;5.20;;;;;;;4.14;100.00;94007.09;5065762;28;20052;-72
2021/12/06 01:16:00;;;;;;;11.90;6.38;;;;;;;4.11;100.00;94012.69;5066442;28;20044;-72
2021/12/06 01:18:27;;;;;;;13.35;5.72;;;;;;;4.08;100.00;94005.38;5080467;28;20044;-71
2021/12/06 01:21:09;;;;;;;12.18;5.68;;;;;;;4.08;100.00;94023.41;5068554;28;20468;-72
2021/12/06 01:24:12;;;;;;;11.23;4.88;;;;;;;4.08;100.00;94013.13;5066911;28;20732;-71
2021/12/06 01:26:45;;;;;;;13.23;5.22;;;;;;;4.14;100.00;94025.16;5063462;28;20048;-72
2021/12/06 01:40:54;;;;;;;14.98;7.32;;;;;;;4.29;100.00;93968.91;4981633;28;20610;-72
2021/12/06 01:43:21;;;;;;;15.18;7.45;;;;;;;4.43;100.00;93999.72;5052208;28;20631;-71
2021/12/06 01:45:50;;;;;;;18.55;8.50;;;;;;;4.48;100.00;93999.88;5066806;28;20071;-72
2021/12/06 01:48:17;;;;;;;15.32;8.10;;;;;;;4.54;100.00;93983.56;5067089;28;20066;-72
2021/12/06 01:50:44;;;;;;;19.55;8.95;;;;;;;4.52;100.00;93981.19;5070517;28;20053;-72
2021/12/06 01:53:12;;;;;;;17.65;7.80;;;;;;;4.55;100.00;93979.97;5063194;28;20071;-72
2021/12/06 01:55:40;;;;;;;13.13;7.70;;;;;;;4.57;100.00;93977.97;5065492;28;20044;-72
2021/12/06 01:58:09;;;;;;;12.95;5.18;;;;;;;4.59;100.00;93970.78;5063102;28;20037;-71
2021/12/06 02:00:41;;;;;;;12.43;5.75;;;;;;;4.57;100.00;93970.22;5067189;28;20037;-72
2021/12/06 02:03:14;;;;;;;12.88;5.95;;;;;;;4.49;100.00;93955.06;5064092;28;20047;-71
2021/12/06 02:05:44;;;;;;;13.35;6.68;;;;;;;4.58;100.00;93956.34;5070292;28;20048;-71
2021/12/06 02:08:14;;;;;;;13.02;6.28;;;;;;;4.50;100.00;93960.00;5071394;28;20127;-72
2021/12/06 02:10:41;;;;;;;15.68;6.45;;;;;;;4.54;100.00;93955.19;5064530;28;20078;-72
2021/12/06 02:13:13;;;;;;;11.75;5.68;;;;;;;4.48;100.00;93950.88;5065720;28;20593;-71
2021/12/06 02:18:16;;;;;;;15.80;6.47;;;;;;;4.55;100.00;93952.38;5062584;28;20040;-71
2021/12/06 02:20:57;;;;;;;12.95;5.75;;;;;;;4.56;100.00;93963.50;5066513;28;20136;-71
2021/12/06 02:23:25;;;;;;;11.27;6.10;;;;;;;4.59;100.00;93973.38;5067520;28;20048;-72
2021/12/06 02:25:53;;;;;;;13.20;7.68;;;;;;;4.47;100.00;93946.75;5066339;28;20074;-71
2021/12/06 02:28:21;;;;;;;14.98;6.70;;;;;;;4.60;100.00;93975.75;5068412;28;20070;-72
2021/12/06 02:30:48;;;;;;;17.98;8.05;;;;;;;4.62;100.00;93965.22;5065815;28;20051;-72
2021/12/06 02:33:17;;;;;;;21.40;7.95;;;;;;;4.66;100.00;93978.47;5063352;28;20155;-72
2021/12/06 02:35:44;;;;;;;15.65;7.00;;;;;;;4.65;100.00;93988.00;5066732;28;20131;-71
2021/12/06 02:38:11;;;;;;;13.18;6.15;;;;;;;4.69;100.00;93991.72;5063011;28;20136;-71
2021/12/06 02:40:40;;;;;;;17.58;5.93;;;;;;;4.56;100.00;93977.19;5064460;28;20131;-72
2021/12/06 02:43:11;;;;;;;15.75;6.43;;;;;;;4.73;100.00;93979.97;5068854;28;20131;-72
2021/12/06 02:45:40;;;;;;;14.77;7.05;;;;;;;4.76;100.00;93987.28;5064672;28;20064;-72
2021/12/06 02:48:11;;;;;;;16.33;6.97;;;;;;;4.67;100.00;93975.69;5063254;28;20071;-72
2021/12/06 02:50:49;;;;;;;18.30;7.70;;;;;;;4.70;100.00;93985.59;5062336;28;21831;-72
2021/12/06 02:53:19;;;;;;;13.63;6.97;;;;;;;4.64;100.00;93972.75;5071873;28;20043;-72
2021/12/06 02:55:52;;;;;;;17.30;6.70;;;;;;;4.65;100.00;93964.00;5063733;28;20033;-72
2021/12/06 03:01:10;;;;;;;15.93;6.57;;;;;;;4.61;100.00;93968.81;5068195;28;20044;-71
2021/12/06 03:03:39;;;;;;;;;;;;;;;4.63;100.00;93969.38;5067851;28;20072;-72
2021/12/06 03:06:09;;;;;;;13.45;5.97;;;;;;;4.64;100.00;93972.75;5063919;28;19931;-71
2021/12/06 03:08:42;;;;;;;14.77;6.43;;;;;;;4.73;100.00;93955.97;5063857;28;20047;-71
2021/12/06 03:11:31;;;;;;;11.50;6.25;;;;;;;4.72;100.00;93957.78;5065730;28;20066;-72
2021/12/06 03:14:03;;;;;;;9.65;5.65;;;;;;;4.68;100.00;93948.91;5064737;28;20052;-72
2021/12/06 03:16:31;;;;;;;7.45;4.43;;;;;;;4.65;100.00;93927.91;5070612;28;20049;-72
2021/12/06 03:18:58;;;;;;;13.75;5.50;;;;;;;4.76;100.00;93948.59;5062555;28;20049;-72
2021/12/06 03:21:26;;;;;;;12.30;5.13;;;;;;;4.78;100.00;93941.41;5065745;28;20118;-72
2021/12/06 03:23:56;;;;;;;17.50;6.32;;;;;;;4.70;100.00;93934.00;5065148;28;20044;-72
2021/12/06 03:26:24;;;;;;;14.48;6.30;;;;;;;4.79;100.00;93937.84;5065113;28;20052;-72
2021/12/06 03:28:52;;;;;;;13.57;6.32;;;;;;;4.79;100.00;93937.06;5066978;28;20129;-72
2021/12/06 03:31:21;;;;;;;12.32;6.40;;;;;;;4.74;100.00;93945.44;5065721;28;20041;-72
2021/12/06 03:33:53;;;;;;;14.05;7.55;;;;;;;4.75;100.00;93956.53;5062524;28;20055;-72
2021/12/06 03:36:22;;;;;;;12.20;5.78;;;;;;;4.73;100.00;93956.75;5065380;28;20048;-72
2021/12/06 03:38:52;;;;;;;12.70;5.30;;;;;;;4.73;100.00;93964.50;5066933;28;20577;-72
2021/12/06 03:41:22;;;;;;;9.35;5.85;;;;;;;4.68;100.00;93961.78;5065963;28;20047;-72
2021/12/06 03:43:50;;;;;;;10.50;4.90;;;;;;;4.70;100.00;93959.78;5067089;28;20127;-72
2021/12/06 03:46:21;;;;;;;12.15;5.70;;;;;;;4.79;100.00;93968.03;5068221;28;20079;-72
2021/12/06 03:48:49;;;;;;;12.20;4.57;;;;;;;4.83;100.00;93965.81;5062582;28;20472;-72
2021/12/06 03:51:16;;;;;;;14.05;7.32;;;;;;;4.87;100.00;93959.19;5065345;28;20040;-72
2021/12/06 03:53:44;;;;;;;17.95;7.63;;;;;;;4.81;100.00;93966.00;5064654;28;20048;-72
2021/12/06 03:56:13;;;;;;;18.90;8.13;;;;;;;4.78;100.00;93977.53;5066487;28;20051;-72
2021/12/06 03:58:43;;;;;;;19.10;6.80;;;;;;;4.77;100.00;93963.09;5066669;28;20048;-71
2021/12/06 04:01:11;;;;;;;16.23;7.82;;;;;;;4.77;100.00;93970.81;5067749;28;20052;-72
2021/12/06 04:03:42;;;;;;;19.92;7.88;;;;;;;4.72;100.00;93981.00;5071694;28;20178;-72
2021/12/06 04:06:11;;;;;;;16.15;7.93;;;;;;;4.62;100.00;93962.63;5070902;28;20094;-72
2021/12/06 04:08:38;;;;;;;19.90;8.25;;;;;;;4.65;100.00;93962.22;5069442;28;20045;-72
2021/12/06 04:11:07;;;;;;;17.13;9.38;;;;;;;4.66;100.00;93963.78;5066566;28;20036;-72
2021/12/06 04:13:36;;;;;;;16.35;7.15;;;;;;;4.54;100.00;93944.88;5067131;28;20494;-71
2021/12/06 04:16:03;;;;;;;17.38;8.40;;;;;;;4.59;100.00;93960.47;5066947;28;20159;-71
2021/12/06 04:18:34;;;;;;;23.45;9.85;;;;;;;4.56;100.00;93958.34;5067373;28;20527;-72
2021/12/06 04:21:05;;;;;;;18.83;9.38;;;;;;;4.52;100.00;93944.28;5065835;28;20071;-71
2021/12/06 04:23:36;;;;;;;19.30;9.52;;;;;;;4.48;100.00;93945.72;5067933;28;20102;-71
2021/12/06 04:26:04;;;;;;;17.30;9.13;;;;;;;4.40;100.00;93947.59;5065756;28;20068;-71
2021/12/06 04:28:33;;;;;;;19.83;8.15;;;;;;;4.37;100.00;93942.84;5067821;28;20044;-71
2021/12/06 04:31:04;;;;;;;18.02;8.63;;;;;;;4.42;100.00;93949.19;5069756;28;20131;-71
2021/12/06 04:33:32;;;;;;;19.65;9.18;;;;;;;4.34;100.00;93951.03;5066050;28;20536;-72
2021/12/06 04:36:00;;;;;;;29.98;10.27;;;;;;;4.34;100.00;93940.72;5065654;28;20138;-71
2021/12/06 04:38:28;;;;;;;32.63;10.10;;;;;;;4.36;100.00;93954.19;5065910;28;20064;-71
2021/12/06 04:40:59;;;;;;;17.08;8.43;;;;;;;4.29;100.00;93958.59;5067520;28;20044;-71
2021/12/06 04:43:27;;;;;;;21.70;9.35;;;;;;;4.15;100.00;93946.84;5080920;28;20132;-71
2021/12/06 04:45:55;;;;;;;23.33;9.55;;;;;;;4.22;100.00;93952.72;5064957;28;20040;-71
2021/12/06 04:48:23;;;;;;;22.40;10.02;;;;;;;4.14;100.00;93932.38;5065207;28;20045;-71
2021/12/06 04:50:50;;;;;;;23.33;10.25;;;;;;;4.28;100.00;93936.41;5065015;28;20482;-71
2021/12/06 04:53:23;;;;;;;20.00;8.85;;;;;;;4.16;100.00;93922.63;5065036;28;20063;-71
2021/12/06 04:56:07;;;;;;;20.75;8.98;;;;;;;4.46;100.00;93948.50;5065105;28;20048;-71
2021/12/06 04:58:42;;;;;;;20.70;9.27;;;;;;;4.43;100.00;93948.16;5065023;28;20527;-72
2021/12/06 05:01:10;;;;;;;;;;;;;;;4.38;100.00;93969.44;5068638;28;20165;-72
2021/12/06 05:03:40;;;;;;;14.35;6.85;;;;;;;4.26;100.00;93950.50;5065304;28;20003;-72
2021/12/06 05:06:12;;;;;;;15.45;8.05;;;;;;;4.17;100.00;93971.38;5065612;28;20059;-72
2021/12/06 05:08:44;;;;;;;17.25;8.10;;;;;;;4.09;100.00;93978.59;5068643;28;20052;-72
2021/12/06 05:11:11;;;;;;;16.17;8.20;;;;;;;4.26;100.00;93974.50;5064968;28;20044;-72
2021/12/06 05:13:44;;;;;;;20.35;8.70;;;;;;;4.20;100.00;93949.56;5068061;28;20047;-72
2021/12/06 05:16:11;;;;;;;15.15;7.60;;;;;;;4.22;100.00;93988.81;5066812;28;20052;-72
2021/12/06 05:18:39;;;;;;;17.17;7.47;;;;;;;4.24;100.00;93981.66;5064379;28;20456;-71
2021/12/06 05:21:07;;;;;;;11.20;6.25;;;;;;;4.05;100.00;93962.78;5066020;28;20045;-71
2021/12/06 05:23:35;;;;;;;12.40;7.05;;;;;;;4.09;100.00;93978.59;5070880;28;20130;-71
2021/12/06 05:26:03;;;;;;;15.20;7.50;;;;;;;4.15;100.00;93972.63;5064788;28;20060;-71
2021/12/06 05:28:34;;;;;;;20.30;7.93;;;;;;;4.20;100.00;93980.50;5066194;28;20040;-72
2021/12/06 05:31:01;;;;;;;16.20;7.53;;;;;;;4.33;100.00;94010.53;5072434;28;20495;-72
2021/12/06 05:33:30;;;;;;;20.65;8.02;;;;;;;4.28;100.00;94000.84;5064581;28;20044;-72
2021/12/06 05:36:00;;;;;;;12.63;6.57;;;;;;;4.17;100.00;94001.53;5071684;28;20061;-72
2021/12/06 05:38:28;;;;;;;17.10;7.55;;;;;;;4.27;100.00;93999.28;5064908;28;20143;-71
2021/12/06 05:40:57;;;;;;;17.15;7.47;;;;;;;4.32;100.00;94004.59;5067266;28;20041;-72
2021/12/06 05:43:24;;;;;;;15.13;7.40;;;;;;;4.29;100.00;93999.06;5073867;28;20895;-72
2021/12/06 05:45:53;;;;;;;14.93;7.00;;;;;;;4.32;100.00;94007.16;5063830;28;20143;-72
2021/12/06 05:48:20;;;;;;;14.30;7.07;;;;;;;4.29;100.00;94001.66;5071133;28;20040;-72
2021/12/06 05:50:50;;;;;;;17.95;8.20;;;;;;;4.25;100.00;93998.72;5070925;28;20561;-72
2021/12/06 05:53:18;;;;;;;12.32;6.75;;;;;;;4.24;100.00;93986.81;5070314;28;20456;-72
2021/12/06 05:55:46;;;;;;;15.35;6.90;;;;;;;4.26;100.00;93971.91;5070455;28;20044;-72
2021/12/06 05:58:16;;;;;;;47.53;17.00;;;;;;;4.24;100.00;93975.72;5064481;28;20423;-72
2021/12/06 06:00:43;;;;;;;26.90;13.52;;;;;;;4.17;100.00;93970.63;5067972;28;20580;-71
2021/12/06 06:03:10;;;;;;;20.98;10.40;;;;;;;4.26;100.00;93971.91;5068639;28;20123;-71
2021/12/06 06:05:38;;;;;;;17.73;10.00;;;;;;;4.24;100.00;93970.56;5064974;28;20040;-71
2021/12/06 06:08:06;;;;;;;15.20;8.65;;;;;;;4.30;100.00;93960.16;5067326;28;20440;-71
2021/12/06 06:10:35;;;;;;;15.30;7.15;;;;;;;4.30;100.00;93959.38;5064752;28;20040;-72
2021/12/06 06:13:03;;;;;;;19.85;8.45;;;;;;;4.29;100.00;93945.72;5070102;28;20129;-72
2021/12/06 06:15:31;;;;;;;15.40;6.88;;;;;;;4.33;100.00;93944.28;5065150;28;20036;-72
2021/12/06 06:17:59;;;;;;;16.85;8.63;;;;;;;4.35;100.00;93950.00;5063178;28;20044;-72
2021/12/06 06:20:37;;;;;;;14.75;7.32;;;;;;;4.43;100.00;93966.19;5064097;28;20490;-72
2021/12/06 06:23:05;;;;;;;18.92;7.90;;;;;;;4.54;100.00;93970.69;5069218;28;20159;-72
2021/12/06 06:25:32;;;;;;;18.77;8.10;;;;;;;4.56;100.00;93963.50;5063943;28;20127;-72
2021/12/06 06:28:00;;;;;;;14.77;6.72;;;;;;;4.69;100.00;93968.50;5069653;28;20406;-70
2021/12/06 06:30:27;;;;;;;14.07;7.05;;;;;;;4.78;100.00;93967.22;5065832;28;20044;-70
2021/12/06 06:32:54;;;;;;;19.00;9.18;;;;;;;4.69;100.00;93965.94;5069910;28;20059;-70
2021/12/06 06:35:21;;;;;;;17.80;9.25;;;;;;;4.76;100.00;93984.72;5070654;28;20045;-70
2021/12/06 06:37:48;;;;;;;17.70;10.60;;;;;;;4.86;100.00;94004.06;5064944;28;20107;-70
2021/12/06 06:40:16;;;;;;;19.85;9.40;;;;;;;4.90;100.00;94010.38;5064438;28;20048;-70
2021/12/06 06:42:43;;;;;;;18.75;10.10;;;;;;;4.98;100.00;94012.66;5064242;28;20049;-70
2021/12/06 06:45:14;;;;;;;18.00;10.10;;;;;;;4.93;100.00;93999.59;5065335;28;20110;-70
2021/12/06 06:47:41;;;;;;;24.02;12.13;;;;;;;4.97;100.00;94005.94;5064424;28;20033;-70
2021/12/06 06:50:09;;;;;;;17.73;7.55;;;;;;;5.07;100.00;94026.84;5064318;28;20502;-70
2021/12/06 06:52:36;;;;;;;15.95;7.93;;;;;;;4.98;100.00;94017.81;5066701;28;20045;-72
2021/12/06 06:55:05;;;;;;;17.55;7.30;;;;;;;5.11;100.00;94032.38;5068426;28;20441;-72
2021/12/06 06:57:32;;;;;;;16.58;7.72;;;;;;;5.19;100.00;94008.06;5069904;28;20036;-73
2021/12/06 06:59:59;;;;;;;14.98;8.07;;;;;;;5.25;100.00;94012.34;5066006;28;20094;-73
2021/12/06 07:02:26;;;;;;;14.20;6.93;;;;;;;5.23;100.00;94009.22;5063853;28;20033;-72
2021/12/06 07:04:53;;;;;;;13.23;7.75;;;;;;;5.20;100.00;93999.31;5064311;28;20083;-72
2021/12/06 07:07:20;;;;;;;18.13;8.40;;;;;;;5.12;100.00;94006.34;5064288;28;20115;-70
2021/12/06 07:09:47;;;;;;;17.42;7.72;;;;;;;5.05;100.00;94018.53;5065528;28;20524;-70
2021/12/06 07:12:17;;;;;;;15.60;7.70;;;;;;;5.07;100.00;94019.09;5063074;28;20053;-70
2021/12/06 07:14:46;;;;;;;14.90;8.20;;;;;;;5.12;100.00;94008.16;5068952;28;20050;-70
2021/12/06 07:17:14;;;;;;;18.85;8.15;;;;;;;5.07;100.00;94016.53;5062457;28;20040;-71
2021/12/06 07:19:42;;;;;;;15.40;8.35;;;;;;;5.13;100.00;94026.00;5063324;28;20037;-70
2021/12/06 07:22:10;;;;;;;17.88;8.63;;;;;;;5.12;100.00;94014.09;5064471;28;20047;-70
2021/12/06 07:24:37;;;;;;;27.40;6.80;;;;;;;5.10;100.00;93994.66;5068462;28;20116;-71
2021/12/06 07:27:05;;;;;;;14.05;6.13;;;;;;;5.32;100.00;94013.06;5063687;28;20047;-70
2021/12/06 07:29:33;;;;;;;14.77;6.18;;;;;;;5.39;100.00;94012.97;5066799;28;20127;-70
2021/12/06 07:32:01;;;;;;;11.63;5.85;;;;;;;5.44;100.00;94011.31;5068286;28;20487;-70
2021/12/06 07:34:28;;;;;;;12.35;6.72;;;;;;;5.47;100.00;93995.38;5075404;28;20043;-70
2021/12/06 07:36:55;;;;;;;10.73;6.00;;;;;;;5.50;100.00;93984.59;5072110;28;20059;-70
2021/12/06 07:39:22;;;;;;;12.30;6.15;;;;;;;5.44;100.00;93984.69;5069482;28;20044;-70
2021/12/06 07:41:50;;;;;;;11.48;6.28;;;;;;;5.45;100.00;93981.88;5067330;28;20044;-72
2021/12/06 07:44:17;;;;;;;13.75;6.00;;;;;;;5.59;100.00;93992.06;5071946;28;20041;-73
2021/12/06 07:46:46;;;;;;;13.80;6.43;;;;;;;5.63;100.00;94004.28;5070321;28;20040;-73
2021/12/06 07:49:13;;;;;;;14.30;6.25;;;;;;;5.57;100.00;94014.75;5070697;28;20517;-70
2021/12/06 07:51:41;;;;;;;17.20;7.65;;;;;;;5.60;100.00;94022.03;5065568;28;20055;-69
2021/12/06 07:54:08;;;;;;;11.27;6.25;;;;;;;5.68;100.00;94019.94;5066465;28;20044;-70
2021/12/06 07:56:35;;;;;;;19.13;6.80;;;;;;;5.70;100.00;94010.16;5067859;28;20048;-70
2021/12/06 07:59:02;;;;;;;12.73;5.25;;;;;;;5.66;100.00;93995.34;5070925;28;20051;-69
2021/12/06 08:01:29;;;;;;;21.42;9.35;;;;;;;5.69;100.00;94003.44;5065141;28;21939;-70
2021/12/06 08:03:59;;;;;;;15.40;6.10;;;;;;;5.62;100.00;93991.59;5066379;28;20426;-69
2021/12/06 08:06:27;;;;;;;12.40;6.20;;;;;;;5.71;100.00;93992.88;5073263;28;20048;-69
2021/12/06 08:08:54;;;;;;;13.45;5.28;;;;;;;5.80;100.00;93990.75;5069268;28;20041;-69
2021/12/06 08:11:21;;;;;;;14.52;5.63;;;;;;;5.89;100.00;94034.16;5069667;28;20136;-69
2021/12/06 08:13:53;;;;;;;17.50;6.78;;;;;;;5.86;100.00;94032.00;5072081;28;20148;-70
2021/12/06 08:16:25;;;;;;;17.90;8.60;;;;;;;5.63;100.00;93995.78;5076287;28;20565;-70
2021/12/06 08:18:53;;;;;;;21.60;10.15;;;;;;;5.68;100.00;94016.56;5066717;28;20048;-70
2021/12/06 08:21:21;;;;;;;15.40;8.00;;;;;;;5.61;100.00;94010.69;5067241;28;20460;-70
2021/12/06 08:23:49;;;;;;;15.77;7.97;;;;;;;5.66;100.00;94018.59;5067346;28;20071;-69
2021/12/06 08:26:20;;;;;;;16.30;9.02;;;;;;;5.62;100.00;93996.75;5066681;28;20033;-71
2021/12/06 08:28:50;;;;;;;18.10;9.25;;;;;;;5.63;100.00;94003.53;5068855;28;20066;-71
2021/12/06 08:31:22;;;;;;;16.48;9.07;;;;;;;5.65;100.00;94004.09;5073976;28;21794;-72
2021/12/06 08:33:51;;;;;;;17.17;8.85;;;;;;;5.81;100.00;94013.78;5067842;28;20124;-72
2021/12/06 08:36:19;;;;;;;15.68;7.63;;;;;;;5.72;100.00;94007.34;5067285;28;20051;-71
2021/12/06 08:38:48;;;;;;;11.52;6.43;;;;;;;5.83;100.00;93998.84;5070766;28;20040;-71
2021/12/06 08:41:22;;;;;;;17.27;7.95;;;;;;;5.85;100.00;93994.28;5070980;28;20044;-72
2021/12/06 08:43:50;;;;;;;13.23;6.20;;;;;;;5.88;100.00;93980.88;5071923;28;20044;-73
2021/12/06 08:46:21;;;;;;;17.88;9.40;;;;;;;6.09;100.00;93986.59;5070217;28;20066;-73
2021/12/06 08:48:50;;;;;;;15.88;8.10;;;;;;;6.00;100.00;93973.19;5069751;28;20046;-72
2021/12/06 08:51:25;;;;;;;11.85;6.45;;;;;;;6.13;100.00;93967.00;5075432;28;20525;-72
2021/12/06 08:53:53;;;;;;;9.93;5.82;;;;;;;6.28;100.00;93969.16;5070055;28;21754;-72
2021/12/06 08:56:21;;;;;;;12.68;6.50;;;;;;;6.29;100.00;93953.41;5068068;28;20131;-76
2021/12/06 08:58:49;;;;;;;10.55;6.65;;;;;;;6.27;100.00;93957.25;5067982;28;20032;-74
2021/12/06 09:01:18;;;;;;;13.85;7.25;;;;;;;6.32;100.00;93981.41;5071150;28;20121;-72
2021/12/06 09:04:09;;;;;;;20.45;10.57;;;;;;;6.22;100.00;93981.19;5067511;28;20032;-73
2021/12/06 09:06:38;;;;;;;27.85;13.65;;;;;;;6.42;100.00;93980.06;5070788;28;20044;-73
2021/12/06 09:09:08;;;;;;;15.27;8.57;;;;;;;6.56;100.00;93976.22;5066914;28;20037;-73
2021/12/06 09:11:40;;;;;;;11.38;5.95;;;;;;;6.57;100.00;93957.13;5064010;28;20397;-73
2021/12/06 09:14:08;;;;;;;15.10;6.47;;;;;;;6.72;100.00;93948.06;5057881;28;20056;-72
2021/12/06 09:16:36;;;;;;;17.02;8.07;;;;;;;7.15;100.00;93952.81;5064486;28;20544;-72
2021/12/06 09:19:06;;;;;;;11.88;5.72;;;;;;;7.38;100.00;93957.13;5066027;28;20036;-72
2021/12/06 09:21:36;;;;;;;11.15;6.13;;;;;;;7.35;100.00;93957.59;5066234;28;20047;-72
2021/12/06 09:24:10;;;;;;;13.85;5.97;;;;;;;7.36;100.00;93943.59;5069035;28;20072;-72
2021/12/06 09:26:37;;;;;;;14.45;6.50;;;;;;;7.32;100.00;93942.50;5062861;28;20474;-73
2021/12/06 09:29:06;;;;;;;14.88;8.10;;;;;;;7.46;100.00;93933.44;5072572;28;20097;-73
2021/12/06 09:31:33;;;;;;;13.55;6.68;;;;;;;7.63;100.00;93925.69;5070745;28;20514;-73
2021/12/06 09:34:00;;;;;;;11.10;7.15;;;;;;;7.72;100.00;93943.44;5075632;28;20040;-75
2021/12/06 09:36:28;;;;;;;13.95;7.70;;;;;;;7.79;100.00;93926.69;5067635;28;20061;-73
2021/12/06 09:38:55;;;;;;;20.85;10.63;;;;;;;7.81;100.00;93929.88;5066487;28;20145;-73
2021/12/06 09:41:26;;;;;;;15.73;6.38;;;;;;;7.72;100.00;93926.06;5068539;28;20037;-72
2021/12/06 09:43:59;;;;;;;15.70;7.57;;;;;;;7.73;100.00;93924.28;5063295;28;20041;-73
2021/12/06 09:46:28;;;;;;;16.75;8.57;;;;;;;7.71;100.00;93940.06;5073888;28;20044;-73
2021/12/06 09:48:56;;;;;;;16.55;7.78;;;;;;;7.58;100.00;93924.78;5067951;28;20521;-73
2021/12/06 09:51:26;;;;;;;15.18;7.25;;;;;;;7.89;100.00;93930.50;5067879;28;20055;-72
2021/12/06 09:53:56;;;;;;;15.07;6.88;;;;;;;7.98;100.00;93923.91;5062585;28;20059;-73
2021/12/06 09:56:29;;;;;;;13.02;6.07;;;;;;;8.08;100.00;93944.00;5072434;28;20075;-73
2021/12/06 09:58:58;;;;;;;12.20;5.70;;;;;;;8.20;100.00;93932.50;5068111;28;20050;-73
2021/12/06 10:01:29;;;;;;;11.35;6.15;;;;;;;8.38;100.00;93922.91;5066440;28;20063;-73
2021/12/06 10:03:58;;;;;;;15.65;8.57;;;;;;;8.41;100.00;93909.47;5069939;28;20048;-73
2021/12/06 10:06:27;;;;;;;11.45;5.78;;;;;;;8.43;100.00;93904.84;5071150;28;20457;-73
2021/12/06 10:08:55;;;;;;;14.38;7.22;;;;;;;8.54;100.00;93906.53;5067659;28;20068;-73
2021/12/06 10:11:24;;;;;;;16.63;8.50;;;;;;;8.53;100.00;93915.34;5067168;28;20048;-73
2021/12/06 10:13:54;;;;;;;12.35;7.30;;;;;;;8.39;100.00;93903.69;5065178;28;20052;-73
2021/12/06 10:16:22;;;;;;;14.38;6.85;;;;;;;8.34;100.00;93907.03;5072052;28;20128;-73
2021/12/06 10:18:50;;;;;;;17.05;7.38;;;;;;;8.20;100.00;93893.59;5063117;28;20111;-73
2021/12/06 10:21:18;;;;;;;13.63;6.97;;;;;;;8.07;100.00;93886.16;5064318;28;20556;-73
2021/12/06 10:23:45;;;;;;;16.58;8.32;;;;;;;8.07;100.00;93880.97;5067761;28;20068;-73
2021/12/06 10:26:17;;;;;;;16.20;8.13;;;;;;;8.12;100.00;93886.25;5069840;28;20127;-73
2021/12/06 10:28:44;;;;;;;26.05;11.43;;;;;;;8.21;100.00;93871.84;5067626;28;20641;-73
2021/12/06 10:31:14;;;;;;;18.05;9.02;;;;;;;8.22;100.00;93847.44;5066295;28;20486;-73
2021/12/06 10:33:45;;;;;;;14.90;6.80;;;;;;;8.38;100.00;93856.22;5069641;28;20055;-73
2021/12/06 10:36:15;;;;;;;50.83;18.38;;;;;;;8.48;100.00;93865.19;5067594;28;20131;-73
2021/12/06 10:38:53;;;;;;;42.17;20.17;;;;;;;8.72;100.00;93881.31;5064831;28;20042;-73
2021/12/06 10:41:25;;;;;;;40.83;14.50;;;;;;;8.85;100.00;93867.97;5068496;28;20064;-73
2021/12/06 10:44:00;;;;;;;55.90;18.45;;;;;;;8.58;100.00;93860.91;5068026;28;20059;-73
2021/12/06 10:46:28;;;;;;;93.80;30.35;;;;;;;8.52;100.00;93835.91;5082629;28;20059;-73
2021/12/06 10:48:58;;;;;;;29.48;11.48;;;;;;;8.54;100.00;93828.69;5074566;28;20480;-73
2021/12/06 10:51:26;;;;;;;17.55;8.02;;;;;;;8.56;100.00;93818.06;5068437;28;20054;-73
2021/12/06 10:54:03;;;;;;;14.07;7.45;;;;;;;8.70;100.00;93805.50;5075068;28;20072;-73
2021/12/06 10:56:55;;;;;;;16.08;8.00;;;;;;;8.65;100.00;93823.59;5073234;28;20051;-74
2021/12/06 10:59:26;;;;;;;21.10;7.60;;;;;;;8.64;100.00;93829.81;5067066;28;20046;-73
2021/12/06 11:02:02;;;;;;;18.25;7.57;;;;;;;8.81;100.00;93848.69;5064626;28;20082;-73
2021/12/06 11:04:30;;;;;;;17.80;7.65;;;;;;;8.64;100.00;93847.97;5069986;28;20044;-73
2021/12/06 11:07:05;;;;;;;15.60;7.53;;;;;;;8.55;100.00;93830.25;5072325;28;20123;-73
2021/12/06 11:09:39;;;;;;;14.50;6.40;;;;;;;8.39;100.00;93815.47;5070053;28;20075;-74
2021/12/06 11:12:08;;;;;;;13.43;6.50;;;;;;;8.36;100.00;93831.56;5072384;28;20106;-73
2021/12/06 11:14:43;;;;;;;15.32;7.82;;;;;;;8.18;100.00;93836.00;5074960;28;20159;-73
2021/12/06 11:17:13;;;;;;;12.10;6.45;;;;;;;8.18;100.00;93836.00;5077336;28;20123;-75
2021/12/06 11:19:41;;;;;;;17.20;8.27;;;;;;;8.29;100.00;93826.53;5065534;28;20618;-75
2021/12/06 11:22:11;;;;;;;13.73;7.13;;;;;;;8.31;100.00;93818.50;5068232;28;20051;-75
2021/12/06 11:24:45;;;;;;;14.15;5.43;;;;;;;8.60;100.00;93827.69;5066090;28;20046;-74
2021/12/06 11:27:28;;;;;;;11.85;5.25;;;;;;;8.60;100.00;93851.06;5069871;28;20052;-74
2021/12/06 11:30:05;;;;;;;14.07;6.80;;;;;;;8.64;100.00;93847.97;5072818;28;20068;-74
2021/12/06 11:32:43;;;;;;;13.98;7.00;;;;;;;8.58;100.00;93837.53;5074202;28;20896;-74
2021/12/06 11:35:13;;;;;;;14.63;7.00;;;;;;;8.55;100.00;93851.03;5070640;28;20115;-74
2021/12/06 11:37:49;;;;;;;17.75;9.45;;;;;;;8.54;100.00;93854.63;5067604;28;20066;-74
2021/12/06 11:40:24;;;;;;;16.83;6.82;;;;;;;8.56;100.00;93846.59;5071720;28;20029;-74
2021/12/06 11:43:00;;;;;;;15.05;8.13;;;;;;;8.67;100.00;93827.50;5068673;28;20044;-73
2021/12/06 11:45:56;;;;;;;18.38;7.40;;;;;;;9.06;100.00;93839.63;5065730;28;20040;-73
2021/12/06 11:48:26;;;;;;;14.80;8.20;;;;;;;9.32;100.00;93833.59;5071937;28;20113;-74
2021/12/06 11:50:57;;;;;;;16.67;7.75;;;;;;;9.82;100.00;93847.25;5071561;28;20509;-75
2021/12/06 11:53:31;;;;;;;21.52;9.57;;;;;;;10.57;98.16;93846.38;5072763;28;20075;-76